createdAt,value
2023-05-01T00:01:00.161Z,100.00
2023-05-01T00:03:03.422Z,100.00
2023-05-01T00:05:07.582Z,100.00
2023-05-01T00:07:10.435Z,100.00
2023-05-01T00:09:13.294Z,100.00
2023-05-01T00:11:17.585Z,100.00
2023-05-01T00:13:21.973Z,100.00
2023-05-01T00:15:24.958Z,100.00
2023-05-01T00:17:28.235Z,100.00
2023-05-01T00:19:31.226Z,100.00
2023-05-01T00:21:34.506Z,100.00
2023-05-01T00:23:38.319Z,100.00
2023-05-01T00:25:41.250Z,100.00
2023-05-01T00:27:45.740Z,100.00
2023-05-01T00:29:48.646Z,100.00
2023-05-01T00:31:51.656Z,100.00
2023-05-01T00:33:54.576Z,100.00
2023-05-01T00:35:57.521Z,100.00
2023-05-01T00:38:00.420Z,100.00
2023-05-01T00:40:03.860Z,100.00
2023-05-01T00:42:07.038Z,100.00
2023-05-01T00:44:11.490Z,100.00
2023-05-01T00:46:14.439Z,100.00
2023-05-01T00:48:17.428Z,100.00
2023-05-01T00:50:20.381Z,100.00
2023-05-01T00:52:24.604Z,100.00
2023-05-01T00:54:28.424Z,100.00
2023-05-01T00:56:32.080Z,100.00
2023-05-01T00:58:34.988Z,100.00
2023-05-01T01:00:39.290Z,100.00
2023-05-01T01:02:42.279Z,100.00
2023-05-01T01:04:47.041Z,100.00
2023-05-01T01:06:55.015Z,100.00
2023-05-01T01:09:07.914Z,100.00
2023-05-01T01:11:16.417Z,100.00
2023-05-01T01:13:22.727Z,100.00
2023-05-01T01:15:30.576Z,100.00
2023-05-01T01:17:39.927Z,100.00
2023-05-01T01:20:18.718Z,100.00
2023-05-01T01:22:24.964Z,100.00
2023-05-01T01:24:43.757Z,100.00
2023-05-01T01:27:28.112Z,100.00
2023-05-01T01:29:41.878Z,100.00
2023-05-01T01:31:54.045Z,100.00
2023-05-01T01:34:04.169Z,100.00
2023-05-01T01:36:09.490Z,100.00
2023-05-01T01:38:17.847Z,100.00
2023-05-01T01:40:25.052Z,100.00
2023-05-01T01:42:31.782Z,100.00
2023-05-01T01:44:35.871Z,100.00
2023-05-01T01:46:40.936Z,100.00
2023-05-01T01:48:47.871Z,100.00
2023-05-01T01:50:54.710Z,100.00
2023-05-01T01:52:59.534Z,100.00
2023-05-01T01:55:06.480Z,100.00
2023-05-01T01:57:09.669Z,100.00
2023-05-01T01:59:13.495Z,100.00
2023-05-01T02:01:18.474Z,100.00
2023-05-01T02:03:22.085Z,100.00
2023-05-01T02:05:26.219Z,100.00
2023-05-01T02:07:32.994Z,100.00
2023-05-01T02:09:36.856Z,100.00
2023-05-01T02:11:41.440Z,100.00
2023-05-01T02:13:45.130Z,100.00
2023-05-01T02:15:48.912Z,100.00
2023-05-01T02:17:52.620Z,100.00
2023-05-01T02:19:57.352Z,100.00
2023-05-01T02:22:00.825Z,100.00
2023-05-01T02:24:06.507Z,100.00
2023-05-01T02:26:12.304Z,100.00
2023-05-01T02:28:16.919Z,100.00
2023-05-01T02:30:19.868Z,100.00
2023-05-01T02:32:22.797Z,100.00
2023-05-01T02:34:25.941Z,100.00
2023-05-01T02:36:28.940Z,100.00
2023-05-01T02:38:31.560Z,100.00
2023-05-01T02:40:37.912Z,100.00
2023-05-01T02:42:41.052Z,100.00
2023-05-01T02:44:47.146Z,100.00
2023-05-01T02:46:50.940Z,100.00
2023-05-01T02:48:54.474Z,100.00
2023-05-01T02:50:58.324Z,100.00
2023-05-01T02:53:02.213Z,100.00
2023-05-01T02:55:20.560Z,100.00
2023-05-01T02:57:24.869Z,100.00
2023-05-01T02:59:27.781Z,100.00
2023-05-01T03:01:30.809Z,100.00
2023-05-01T03:03:33.698Z,100.00
2023-05-01T03:05:36.633Z,100.00
2023-05-01T03:07:39.479Z,100.00
2023-05-01T03:09:43.649Z,100.00
2023-05-01T03:11:46.610Z,100.00
2023-05-01T03:13:51.499Z,100.00
2023-05-01T03:15:54.355Z,100.00
2023-05-01T03:17:57.314Z,100.00
2023-05-01T03:20:00.174Z,100.00
2023-05-01T03:22:04.058Z,100.00
2023-05-01T03:24:08.052Z,100.00
2023-05-01T03:26:11.123Z,100.00
2023-05-01T03:28:14.188Z,100.00
2023-05-01T03:30:18.560Z,100.00
2023-05-01T03:32:21.711Z,100.00
2023-05-01T03:34:25.818Z,100.00
2023-05-01T03:36:30.039Z,100.00
2023-05-01T03:38:33.298Z,100.00
2023-05-01T03:40:45.301Z,100.00
2023-05-01T03:43:06.578Z,100.00
2023-05-01T03:45:10.548Z,100.00
2023-05-01T03:47:16.191Z,100.00
2023-05-01T03:49:19.309Z,100.00
2023-05-01T03:51:24.909Z,100.00
2023-05-01T03:53:30.199Z,100.00
2023-05-01T03:55:33.972Z,100.00
2023-05-01T03:57:37.791Z,100.00
2023-05-01T03:59:43.741Z,100.00
2023-05-01T04:01:47.688Z,100.00
2023-05-01T04:03:52.139Z,100.00
2023-05-01T04:05:55.248Z,100.00
2023-05-01T04:07:58.170Z,100.00
2023-05-01T04:10:01.957Z,100.00
2023-05-01T04:12:05.763Z,100.00
2023-05-01T04:14:08.812Z,100.00
2023-05-01T04:16:13.049Z,100.00
2023-05-01T04:18:16.325Z,100.00
2023-05-01T04:20:20.695Z,100.00
2023-05-01T04:22:23.888Z,100.00
2023-05-01T04:24:28.100Z,100.00
2023-05-01T04:26:31.108Z,100.00
2023-05-01T04:28:33.986Z,100.00
2023-05-01T04:30:37.670Z,100.00
2023-05-01T04:32:40.891Z,100.00
2023-05-01T04:34:43.924Z,100.00
2023-05-01T04:36:49.071Z,100.00
2023-05-01T04:38:52.343Z,100.00
2023-05-01T04:40:55.439Z,100.00
2023-05-01T04:42:58.493Z,100.00
2023-05-01T04:45:04.058Z,100.00
2023-05-01T04:47:10.637Z,100.00
2023-05-01T04:49:14.468Z,100.00
2023-05-01T04:51:17.375Z,100.00
2023-05-01T04:53:21.587Z,100.00
2023-05-01T04:55:25.010Z,100.00
2023-05-01T04:57:48.193Z,100.00
2023-05-01T04:59:51.462Z,100.00
2023-05-01T05:01:54.487Z,100.00
2023-05-01T05:03:58.990Z,100.00
2023-05-01T05:06:02.209Z,100.00
2023-05-01T05:08:05.430Z,100.00
2023-05-01T05:10:15.193Z,100.00
2023-05-01T05:12:24.909Z,100.00
2023-05-01T05:14:27.759Z,100.00
2023-05-01T05:16:30.854Z,100.00
2023-05-01T05:18:33.832Z,100.00
2023-05-01T05:20:39.555Z,100.00
2023-05-01T05:22:42.424Z,100.00
2023-05-01T05:24:55.936Z,100.00
2023-05-01T05:27:00.332Z,100.00
2023-05-01T05:29:03.281Z,100.00
2023-05-01T05:31:06.451Z,100.00
2023-05-01T05:33:10.277Z,100.00
2023-05-01T05:35:13.267Z,100.00
2023-05-01T05:37:16.311Z,100.00
2023-05-01T05:39:25.855Z,100.00
2023-05-01T05:41:28.930Z,100.00
2023-05-01T05:43:37.273Z,100.00
2023-05-01T05:45:41.207Z,100.00
2023-05-01T05:47:44.525Z,100.00
2023-05-01T05:49:48.500Z,100.00
2023-05-01T05:51:51.655Z,100.00
2023-05-01T05:53:55.062Z,100.00
2023-05-01T05:55:58.016Z,100.00
2023-05-01T05:58:01.613Z,100.00
2023-05-01T06:00:09.393Z,100.00
2023-05-01T06:02:24.202Z,100.00
2023-05-01T06:04:27.203Z,100.00
2023-05-01T06:06:31.478Z,100.00
2023-05-01T06:08:35.432Z,100.00
2023-05-01T06:10:42.721Z,100.00
2023-05-01T06:12:50.560Z,100.00
2023-05-01T06:15:02.832Z,100.00
2023-05-01T06:17:08.347Z,100.00
2023-05-01T06:19:12.434Z,100.00
2023-05-01T06:21:16.359Z,100.00
2023-05-01T06:23:20.140Z,100.00
2023-05-01T06:25:55.562Z,100.00
2023-05-01T06:27:58.506Z,100.00
2023-05-01T06:30:02.047Z,100.00
2023-05-01T06:32:08.247Z,100.00
2023-05-01T06:34:11.369Z,100.00
2023-05-01T06:36:23.508Z,100.00
2023-05-01T06:38:27.061Z,100.00
2023-05-01T06:40:31.843Z,100.00
2023-05-01T06:42:34.903Z,100.00
2023-05-01T06:44:38.288Z,93.21
2023-05-01T06:46:42.655Z,87.57
2023-05-01T06:48:48.220Z,84.14
2023-05-01T06:50:51.380Z,82.26
2023-05-01T06:52:54.289Z,94.09
2023-05-01T06:54:57.149Z,77.37
2023-05-01T06:57:00.673Z,73.43
2023-05-01T06:59:04.181Z,77.85
2023-05-01T07:01:07.172Z,74.94
2023-05-01T07:03:10.150Z,77.46
2023-05-01T07:05:14.539Z,77.45
2023-05-01T07:07:17.376Z,69.40
2023-05-01T07:09:20.222Z,68.06
2023-05-01T07:11:23.104Z,70.99
2023-05-01T07:13:27.559Z,67.69
2023-05-01T07:15:30.453Z,67.36
2023-05-01T07:17:33.303Z,66.15
2023-05-01T07:19:36.329Z,65.75
2023-05-01T07:21:41.436Z,63.49
2023-05-01T07:23:44.343Z,63.52
2023-05-01T07:25:47.256Z,64.43
2023-05-01T07:27:50.210Z,60.92
2023-05-01T07:29:53.061Z,77.35
2023-05-01T07:31:56.059Z,79.23
2023-05-01T07:33:58.940Z,79.55
2023-05-01T07:36:01.932Z,80.40
2023-05-01T07:38:06.157Z,60.34
2023-05-01T07:40:09.581Z,60.28
2023-05-01T07:42:12.437Z,58.94
2023-05-01T07:44:15.458Z,56.18
2023-05-01T07:46:18.380Z,57.99
2023-05-01T07:48:21.852Z,61.30
2023-05-01T07:50:25.902Z,57.23
2023-05-01T07:52:28.964Z,57.44
2023-05-01T07:54:33.194Z,53.95
2023-05-01T07:56:36.217Z,57.63
2023-05-01T07:58:41.417Z,55.34
2023-05-01T08:00:45.592Z,53.70
2023-05-01T08:02:48.653Z,55.43
2023-05-01T08:04:51.982Z,56.55
2023-05-01T08:06:55.038Z,55.58
2023-05-01T08:08:57.993Z,55.67
2023-05-01T08:11:02.272Z,56.24
2023-05-01T08:13:05.469Z,55.12
2023-05-01T08:15:09.358Z,57.82
2023-05-01T08:17:12.304Z,54.03
2023-05-01T08:19:15.733Z,56.37
2023-05-01T08:21:18.714Z,57.72
2023-05-01T08:23:21.802Z,53.08
2023-05-01T08:25:24.674Z,55.59
2023-05-01T08:27:29.003Z,53.40
2023-05-01T08:29:32.098Z,51.73
2023-05-01T08:31:37.777Z,48.16
2023-05-01T08:33:42.023Z,48.81
2023-05-01T08:35:44.922Z,48.48
2023-05-01T08:37:47.813Z,47.71
2023-05-01T08:39:50.696Z,49.50
2023-05-01T08:41:54.114Z,47.08
2023-05-01T08:43:59.650Z,46.37
2023-05-01T08:46:03.056Z,46.04
2023-05-01T08:48:10.167Z,44.43
2023-05-01T08:50:15.079Z,46.63
2023-05-01T08:52:18.229Z,48.16
2023-05-01T08:54:22.129Z,48.09
2023-05-01T08:56:25.183Z,46.49
2023-05-01T08:58:28.511Z,47.71
2023-05-01T09:00:34.560Z,45.06
2023-05-01T09:02:38.205Z,45.61
2023-05-01T09:04:42.043Z,43.51
2023-05-01T09:06:45.438Z,41.84
2023-05-01T09:08:48.337Z,41.92
2023-05-01T09:10:51.883Z,42.37
2023-05-01T09:12:58.240Z,41.98
2023-05-01T09:15:01.119Z,41.60
2023-05-01T09:17:05.636Z,41.52
2023-05-01T09:19:08.550Z,39.84
2023-05-01T09:21:12.250Z,41.21
2023-05-01T09:23:16.435Z,39.00
2023-05-01T09:25:19.522Z,39.28
2023-05-01T09:27:22.407Z,39.54
2023-05-01T09:29:38.994Z,40.33
2023-05-01T09:31:41.894Z,39.23
2023-05-01T09:33:55.119Z,40.13
2023-05-01T09:35:59.724Z,39.64
2023-05-01T09:38:02.765Z,39.37
2023-05-01T09:40:07.861Z,39.27
2023-05-01T09:42:10.869Z,40.14
2023-05-01T09:44:20.065Z,40.96
2023-05-01T09:46:24.446Z,39.76
2023-05-01T09:48:27.560Z,38.98
2023-05-01T09:50:33.598Z,39.29
2023-05-01T09:52:36.527Z,39.32
2023-05-01T09:54:39.773Z,38.14
2023-05-01T09:56:48.135Z,39.58
2023-05-01T09:58:54.806Z,39.19
2023-05-01T10:00:57.767Z,37.72
2023-05-01T10:03:14.411Z,36.46
2023-05-01T10:05:17.539Z,35.90
2023-05-01T10:07:22.007Z,35.91
2023-05-01T10:09:28.827Z,35.93
2023-05-01T10:11:32.144Z,35.07
2023-05-01T10:13:35.064Z,35.29
2023-05-01T10:15:38.602Z,32.93
2023-05-01T10:17:43.562Z,34.32
2023-05-01T10:19:46.625Z,33.83
2023-05-01T10:21:49.501Z,33.58
2023-05-01T10:23:54.486Z,33.28
2023-05-01T10:25:58.585Z,34.12
2023-05-01T10:28:04.918Z,33.81
2023-05-01T10:30:09.523Z,35.29
2023-05-01T10:32:13.053Z,36.43
2023-05-01T10:34:18.088Z,36.11
2023-05-01T10:36:23.188Z,37.37
2023-05-01T10:38:28.807Z,36.31
2023-05-01T10:40:50.179Z,36.17
2023-05-01T10:43:20.988Z,36.11
2023-05-01T10:45:30.511Z,36.71
2023-05-01T10:47:48.930Z,37.53
2023-05-01T10:50:05.932Z,37.39
2023-05-01T10:52:08.842Z,38.40
2023-05-01T10:54:25.657Z,38.58
2023-05-01T10:56:45.176Z,39.25
2023-05-01T10:58:59.343Z,39.46
2023-05-01T11:01:29.911Z,39.83
2023-05-01T11:03:35.946Z,39.63
2023-05-01T11:06:06.376Z,39.63
2023-05-01T11:08:33.188Z,39.07
2023-05-01T11:10:36.034Z,39.75
2023-05-01T11:12:53.727Z,39.28
2023-05-01T11:15:04.519Z,38.66
2023-05-01T11:17:07.521Z,39.13
2023-05-01T11:19:11.327Z,39.25
2023-05-01T11:21:14.285Z,39.52
2023-05-01T11:23:21.430Z,40.15
2023-05-01T11:25:27.215Z,39.10
2023-05-01T11:27:30.269Z,38.64
2023-05-01T11:29:34.626Z,38.32
2023-05-01T11:31:37.709Z,39.28
2023-05-01T11:33:41.170Z,38.32
2023-05-01T11:35:44.357Z,38.38
2023-05-01T11:37:47.747Z,38.16
2023-05-01T11:39:52.057Z,37.19
2023-05-01T11:42:07.869Z,38.41
2023-05-01T11:44:13.649Z,38.20
2023-05-01T11:46:24.963Z,38.94
2023-05-01T11:48:28.140Z,38.48
2023-05-01T11:50:35.995Z,38.79
2023-05-01T11:52:46.263Z,38.56
2023-05-01T11:54:49.518Z,38.28
2023-05-01T11:56:59.769Z,38.41
2023-05-01T11:59:11.456Z,38.56
2023-05-01T12:01:14.449Z,38.60
2023-05-01T12:03:19.203Z,38.66
2023-05-01T12:05:23.367Z,38.69
2023-05-01T12:07:26.561Z,39.16
2023-05-01T12:09:29.955Z,38.75
2023-05-01T12:11:32.981Z,38.63
2023-05-01T12:13:36.390Z,39.67
2023-05-01T12:15:40.934Z,39.71
2023-05-01T12:17:46.433Z,39.40
2023-05-01T12:19:50.822Z,39.00
2023-05-01T12:22:06.473Z,38.76
2023-05-01T12:24:10.541Z,39.56
2023-05-01T12:26:20.192Z,40.68
2023-05-01T12:28:23.306Z,40.25
2023-05-01T12:30:27.091Z,40.29
2023-05-01T12:32:32.356Z,41.21
2023-05-01T12:34:35.463Z,39.72
2023-05-01T12:36:39.940Z,39.28
2023-05-01T12:38:42.942Z,40.07
2023-05-01T12:40:54.267Z,40.35
2023-05-01T12:42:58.408Z,39.71
2023-05-01T12:45:02.120Z,39.31
2023-05-01T12:47:06.182Z,39.18
2023-05-01T12:49:09.212Z,38.87
2023-05-01T12:51:19.488Z,37.94
2023-05-01T12:53:24.358Z,38.64
2023-05-01T12:55:28.352Z,38.66
2023-05-01T12:57:31.288Z,38.09
2023-05-01T12:59:34.256Z,37.32
2023-05-01T13:01:37.233Z,37.50
2023-05-01T13:03:45.103Z,37.96
2023-05-01T13:05:52.632Z,38.19
2023-05-01T13:07:55.589Z,37.50
2023-05-01T13:10:01.264Z,37.85
2023-05-01T13:12:05.936Z,37.98
2023-05-01T13:14:09.710Z,37.07
2023-05-01T13:16:13.787Z,35.41
2023-05-01T13:18:17.209Z,37.60
2023-05-01T13:20:27.918Z,37.70
2023-05-01T13:22:32.373Z,38.84
2023-05-01T13:24:40.054Z,39.76
2023-05-01T13:26:46.040Z,40.60
2023-05-01T13:28:49.003Z,40.60
2023-05-01T13:30:52.241Z,40.78
2023-05-01T13:32:55.148Z,41.90
2023-05-01T13:35:01.882Z,41.38
2023-05-01T13:37:04.873Z,39.75
2023-05-01T13:39:08.143Z,39.17
2023-05-01T13:41:15.488Z,39.71
2023-05-01T13:43:22.299Z,38.99
2023-05-01T13:45:26.026Z,38.75
2023-05-01T13:47:29.199Z,39.29
2023-05-01T13:49:32.754Z,37.22
2023-05-01T13:51:37.859Z,37.03
2023-05-01T13:53:41.948Z,37.29
2023-05-01T13:55:45.143Z,37.80
2023-05-01T13:57:48.019Z,37.58
2023-05-01T13:59:52.664Z,36.95
2023-05-01T14:01:55.623Z,36.07
2023-05-01T14:04:00.481Z,35.71
2023-05-01T14:06:04.421Z,34.64
2023-05-01T14:08:07.848Z,35.05
2023-05-01T14:10:11.207Z,35.13
2023-05-01T14:12:14.855Z,34.72
2023-05-01T14:14:18.732Z,35.54
2023-05-01T14:16:25.959Z,34.21
2023-05-01T14:18:28.980Z,33.70
2023-05-01T14:20:32.105Z,33.86
2023-05-01T14:22:41.814Z,33.12
2023-05-01T14:24:45.004Z,34.00
2023-05-01T14:26:49.977Z,34.86
2023-05-01T14:28:53.329Z,34.88
2023-05-01T14:30:56.352Z,35.38
2023-05-01T14:33:03.333Z,34.71
2023-05-01T14:35:11.453Z,34.55
2023-05-01T14:37:15.078Z,35.08
2023-05-01T14:39:18.326Z,34.82
2023-05-01T14:41:21.609Z,34.76
2023-05-01T14:43:24.779Z,35.54
2023-05-01T14:45:28.388Z,35.77
2023-05-01T14:47:31.360Z,36.10
2023-05-01T14:49:35.941Z,36.69
2023-05-01T14:51:42.296Z,36.81
2023-05-01T14:53:45.243Z,37.10
2023-05-01T14:55:51.352Z,36.52
2023-05-01T14:57:54.352Z,37.00
2023-05-01T14:59:57.277Z,36.44
2023-05-01T15:02:03.982Z,36.65
2023-05-01T15:04:07.808Z,36.58
2023-05-01T15:06:12.519Z,36.51
2023-05-01T15:08:15.637Z,36.87
2023-05-01T15:10:18.726Z,36.70
2023-05-01T15:12:21.621Z,36.42
2023-05-01T15:14:27.243Z,36.96
2023-05-01T15:16:32.986Z,34.90
2023-05-01T15:18:37.158Z,35.23
2023-05-01T15:20:41.161Z,34.54
2023-05-01T15:22:45.471Z,33.30
2023-05-01T15:24:48.681Z,33.96
2023-05-01T15:26:52.657Z,34.20
2023-05-01T15:28:55.570Z,34.49
2023-05-01T15:30:58.755Z,34.43
2023-05-01T15:33:01.779Z,34.13
2023-05-01T15:35:05.032Z,34.45
2023-05-01T15:37:08.207Z,34.99
2023-05-01T15:39:13.286Z,35.56
2023-05-01T15:41:18.857Z,35.06
2023-05-01T15:43:23.428Z,35.09
2023-05-01T15:45:27.422Z,35.19
2023-05-01T15:47:30.950Z,36.15
2023-05-01T15:49:34.130Z,38.66
2023-05-01T15:51:37.391Z,39.13
2023-05-01T15:53:40.286Z,40.16
2023-05-01T15:55:44.610Z,41.27
2023-05-01T15:57:48.632Z,41.88
2023-05-01T15:59:53.973Z,45.42
2023-05-01T16:01:57.442Z,61.76
2023-05-01T16:04:06.522Z,80.60
2023-05-01T16:06:09.747Z,100.00
2023-05-01T16:08:13.005Z,100.00
2023-05-01T16:10:16.926Z,100.00
2023-05-01T16:12:22.008Z,100.00
2023-05-01T16:14:25.073Z,100.00
2023-05-01T16:16:29.817Z,100.00
2023-05-01T16:18:33.434Z,100.00
2023-05-01T16:20:41.293Z,100.00
2023-05-01T16:22:44.571Z,100.00
2023-05-01T16:24:47.723Z,100.00
2023-05-01T16:26:50.825Z,100.00
2023-05-01T16:28:58.002Z,100.00
2023-05-01T16:31:01.259Z,100.00
2023-05-01T16:33:05.347Z,100.00
2023-05-01T16:35:11.554Z,100.00
2023-05-01T16:37:15.086Z,100.00
2023-05-01T16:39:19.847Z,100.00
2023-05-01T16:41:25.157Z,100.00
2023-05-01T16:43:28.401Z,100.00
2023-05-01T16:45:33.990Z,100.00
2023-05-01T16:47:36.903Z,100.00
2023-05-01T16:49:42.338Z,100.00
2023-05-01T16:51:45.486Z,100.00
2023-05-01T16:53:49.406Z,100.00
2023-05-01T16:55:53.247Z,100.00
2023-05-01T16:57:56.251Z,100.00
2023-05-01T16:59:59.781Z,100.00
2023-05-01T17:02:06.914Z,100.00
2023-05-01T17:04:10.087Z,100.00
2023-05-01T17:06:13.104Z,100.00
2023-05-01T17:08:16.029Z,100.00
2023-05-01T17:10:19.135Z,100.00
2023-05-01T17:12:22.492Z,100.00
2023-05-01T17:14:27.821Z,100.00
2023-05-01T17:16:33.378Z,100.00
2023-05-01T17:18:38.009Z,100.00
2023-05-01T17:20:41.621Z,100.00
2023-05-01T17:22:45.699Z,100.00
2023-05-01T17:24:48.864Z,100.00
2023-05-01T17:26:51.998Z,100.00
2023-05-01T17:28:55.258Z,100.00
2023-05-01T17:30:58.666Z,100.00
2023-05-01T17:33:01.908Z,100.00
2023-05-01T17:35:09.793Z,100.00
2023-05-01T17:37:12.803Z,100.00
2023-05-01T17:39:15.952Z,100.00
2023-05-01T17:41:18.832Z,100.00
2023-05-01T17:43:22.459Z,100.00
2023-05-01T17:45:25.818Z,100.00
2023-05-01T17:47:28.925Z,100.00
2023-05-01T17:49:32.843Z,100.00
2023-05-01T17:51:37.487Z,100.00
2023-05-01T17:53:42.389Z,100.00
2023-05-01T17:55:47.833Z,100.00
2023-05-01T17:58:16.338Z,100.00
2023-05-01T18:00:19.921Z,100.00
2023-05-01T18:02:23.283Z,100.00
2023-05-01T18:04:26.461Z,100.00
2023-05-01T18:06:29.344Z,100.00
2023-05-01T18:08:35.969Z,100.00
2023-05-01T18:10:39.554Z,100.00
2023-05-01T18:12:43.611Z,100.00
2023-05-01T18:14:46.544Z,100.00
2023-05-01T18:16:49.478Z,100.00
2023-05-01T18:18:53.070Z,100.00
2023-05-01T18:20:56.253Z,100.00
2023-05-01T18:22:59.192Z,100.00
2023-05-01T18:25:03.651Z,100.00
2023-05-01T18:27:06.846Z,100.00
2023-05-01T18:29:10.022Z,100.00
2023-05-01T18:31:14.291Z,100.00
2023-05-01T18:33:19.078Z,100.00
2023-05-01T18:35:21.990Z,100.00
2023-05-01T18:37:25.913Z,100.00
2023-05-01T18:39:29.026Z,100.00
2023-05-01T18:41:33.937Z,100.00
2023-05-01T18:43:37.226Z,100.00
2023-05-01T18:45:43.047Z,100.00
2023-05-01T18:47:46.047Z,100.00
2023-05-01T18:49:51.050Z,100.00
2023-05-01T18:51:54.591Z,100.00
2023-05-01T18:53:57.701Z,100.00
2023-05-01T18:56:00.806Z,100.00
2023-05-01T18:58:05.368Z,100.00
2023-05-01T19:00:09.874Z,100.00
2023-05-01T19:02:13.171Z,100.00
2023-05-01T19:04:17.361Z,100.00
2023-05-01T19:06:20.406Z,100.00
2023-05-01T19:08:23.562Z,100.00
2023-05-01T19:10:27.098Z,100.00
2023-05-01T19:12:30.817Z,100.00
2023-05-01T19:14:38.273Z,100.00
2023-05-01T19:16:44.645Z,100.00
2023-05-01T19:18:51.025Z,100.00
2023-05-01T19:20:54.071Z,100.00
2023-05-01T19:22:57.821Z,100.00
2023-05-01T19:25:01.398Z,100.00
2023-05-01T19:27:04.483Z,100.00
2023-05-01T19:29:09.408Z,100.00
2023-05-01T19:31:14.819Z,100.00
2023-05-01T19:33:19.668Z,100.00
2023-05-01T19:35:22.744Z,100.00
2023-05-01T19:37:27.700Z,100.00
2023-05-01T19:39:30.912Z,100.00
2023-05-01T19:41:35.555Z,100.00
2023-05-01T19:43:43.248Z,100.00
2023-05-01T19:45:47.905Z,100.00
2023-05-01T19:47:52.695Z,100.00
2023-05-01T19:49:56.848Z,100.00
2023-05-01T19:51:59.878Z,100.00
2023-05-01T19:54:04.465Z,100.00
2023-05-01T19:56:07.773Z,100.00
2023-05-01T19:58:11.722Z,100.00
2023-05-01T20:00:16.177Z,100.00
2023-05-01T20:02:21.077Z,100.00
2023-05-01T20:04:26.763Z,100.00
2023-05-01T20:06:29.848Z,100.00
2023-05-01T20:08:34.730Z,100.00
2023-05-01T20:10:38.214Z,100.00
2023-05-01T20:12:42.067Z,100.00
2023-05-01T20:14:45.258Z,100.00
2023-05-01T20:16:50.829Z,100.00
2023-05-01T20:18:54.269Z,100.00
2023-05-01T20:20:58.842Z,100.00
2023-05-01T20:23:12.145Z,100.00
2023-05-01T20:25:15.134Z,100.00
2023-05-01T20:27:18.039Z,100.00
2023-05-01T20:29:20.957Z,100.00
2023-05-01T20:31:23.956Z,100.00
2023-05-01T20:33:26.878Z,100.00
2023-05-01T20:35:29.777Z,100.00
2023-05-01T20:37:34.045Z,100.00
2023-05-01T20:39:36.891Z,100.00
2023-05-01T20:41:39.713Z,100.00
2023-05-01T20:43:42.849Z,100.00
2023-05-01T20:45:45.650Z,100.00
2023-05-01T20:47:49.325Z,100.00
2023-05-01T20:49:52.280Z,100.00
2023-05-01T20:51:56.681Z,100.00
2023-05-01T20:54:00.931Z,100.00
2023-05-01T20:56:03.814Z,100.00
2023-05-01T20:58:07.722Z,100.00
2023-05-01T21:00:11.561Z,100.00
2023-05-01T21:02:14.590Z,100.00
2023-05-01T21:04:17.815Z,100.00
2023-05-01T21:06:20.916Z,100.00
2023-05-01T21:08:24.112Z,100.00
2023-05-01T21:10:28.516Z,100.00
2023-05-01T21:12:31.401Z,100.00
2023-05-01T21:14:34.588Z,100.00
2023-05-01T21:16:37.710Z,100.00
2023-05-01T21:18:42.106Z,100.00
2023-05-01T21:20:46.912Z,100.00
2023-05-01T21:22:50.163Z,100.00
2023-05-01T21:24:54.624Z,100.00
2023-05-01T21:27:01.224Z,100.00
2023-05-01T21:29:04.127Z,100.00
2023-05-01T21:31:07.185Z,100.00
2023-05-01T21:33:15.168Z,100.00
2023-05-01T21:35:20.052Z,100.00
2023-05-01T21:37:23.714Z,100.00
2023-05-01T21:39:26.914Z,100.00
2023-05-01T21:41:29.732Z,100.00
2023-05-01T21:43:34.666Z,100.00
2023-05-01T21:45:40.377Z,100.00
2023-05-01T21:47:45.022Z,100.00
2023-05-01T21:49:48.042Z,100.00
2023-05-01T21:51:50.929Z,100.00
2023-05-01T21:53:53.953Z,100.00
2023-05-01T21:55:56.833Z,100.00
2023-05-01T21:58:00.032Z,100.00
2023-05-01T22:00:09.228Z,100.00
2023-05-01T22:02:15.443Z,100.00
2023-05-01T22:04:18.993Z,100.00
2023-05-01T22:06:24.230Z,100.00
2023-05-01T22:08:29.203Z,100.00
2023-05-01T22:10:32.753Z,100.00
2023-05-01T22:12:35.725Z,100.00
2023-05-01T22:14:47.197Z,100.00
2023-05-01T22:16:52.662Z,100.00
2023-05-01T22:18:55.547Z,100.00
2023-05-01T22:20:59.236Z,100.00
2023-05-01T22:23:02.171Z,100.00
2023-05-01T22:25:06.072Z,100.00
2023-05-01T22:27:09.113Z,100.00
2023-05-01T22:29:12.238Z,100.00
2023-05-01T22:31:16.636Z,100.00
2023-05-01T22:33:21.418Z,100.00
2023-05-01T22:35:24.330Z,100.00
2023-05-01T22:37:27.249Z,100.00
2023-05-01T22:39:30.459Z,100.00
2023-05-01T22:41:33.527Z,100.00
2023-05-01T22:43:36.458Z,100.00
2023-05-01T22:45:40.278Z,100.00
2023-05-01T22:47:43.222Z,100.00
2023-05-01T22:49:47.677Z,100.00
2023-05-01T22:51:51.020Z,100.00
2023-05-01T22:53:54.363Z,100.00
2023-05-01T22:55:57.293Z,100.00
2023-05-01T22:58:01.390Z,100.00
2023-05-01T23:00:05.859Z,100.00
2023-05-01T23:02:09.083Z,100.00
2023-05-01T23:04:12.659Z,100.00
2023-05-01T23:06:17.091Z,100.00
2023-05-01T23:08:19.993Z,100.00
2023-05-01T23:10:25.310Z,100.00
2023-05-01T23:12:28.885Z,100.00
2023-05-01T23:14:32.090Z,100.00
2023-05-01T23:16:42.357Z,100.00
2023-05-01T23:18:45.642Z,100.00
2023-05-01T23:20:48.555Z,100.00
2023-05-01T23:22:53.280Z,100.00
2023-05-01T23:24:56.157Z,100.00
2023-05-01T23:26:59.593Z,100.00
2023-05-01T23:29:02.714Z,100.00
2023-05-01T23:31:05.920Z,100.00
2023-05-01T23:33:12.480Z,100.00
2023-05-01T23:35:16.878Z,100.00
2023-05-01T23:37:20.101Z,100.00
2023-05-01T23:39:24.377Z,100.00
2023-05-01T23:41:27.663Z,100.00
2023-05-01T23:43:30.578Z,100.00
2023-05-01T23:45:33.797Z,100.00
2023-05-01T23:47:37.403Z,100.00
2023-05-01T23:49:40.321Z,100.00
2023-05-01T23:51:43.175Z,100.00
2023-05-01T23:53:46.199Z,100.00
2023-05-01T23:55:50.574Z,100.00
2023-05-01T23:57:55.409Z,100.00
2023-05-01T23:59:58.588Z,100.00
